createdAt,value
2023-06-19T00:00:48.638Z,49.50
2023-06-19T00:03:16.874Z,49.40
2023-06-19T00:05:45.092Z,50.30
2023-06-19T00:08:13.239Z,49.30
2023-06-19T00:10:41.367Z,50.80
2023-06-19T00:13:09.497Z,50.40
2023-06-19T00:15:39.106Z,49.80
2023-06-19T00:18:08.286Z,50.80
2023-06-19T00:20:37.441Z,50.90
2023-06-19T00:23:05.645Z,50.40
2023-06-19T00:25:33.772Z,50.60
2023-06-19T00:28:01.900Z,50.10
2023-06-19T00:30:33.763Z,50.90
2023-06-19T00:33:03.613Z,50.10
2023-06-19T00:35:31.756Z,51.10
2023-06-19T00:38:01.836Z,51.10
2023-06-19T00:40:30.978Z,51.20
2023-06-19T00:42:59.312Z,51.30
2023-06-19T00:45:27.904Z,51.40
2023-06-19T00:47:56.356Z,50.10
2023-06-19T00:50:26.242Z,50.00
2023-06-19T00:52:54.671Z,49.40
2023-06-19T00:55:22.755Z,48.70
2023-06-19T00:57:51.254Z,48.30
2023-06-19T01:00:19.479Z,48.10
2023-06-19T01:02:47.934Z,47.60
2023-06-19T01:05:16.354Z,47.40
2023-06-19T01:08:01.310Z,47.70
2023-06-19T01:10:30.661Z,47.80
2023-06-19T01:13:00.485Z,48.00
2023-06-19T01:15:28.604Z,48.00
2023-06-19T01:17:57.196Z,47.70
2023-06-19T01:20:25.608Z,48.20
2023-06-19T01:22:58.154Z,48.50
2023-06-19T01:25:26.555Z,48.00
2023-06-19T01:27:54.784Z,49.10
2023-06-19T01:30:23.247Z,49.30
2023-06-19T01:32:55.700Z,49.10
2023-06-19T01:35:25.739Z,49.80
2023-06-19T01:37:55.308Z,49.60
2023-06-19T01:40:26.121Z,49.40
2023-06-19T01:42:54.543Z,50.20
2023-06-19T01:45:22.819Z,50.90
2023-06-19T01:47:51.041Z,50.40
2023-06-19T01:50:19.170Z,49.70
2023-06-19T01:52:47.676Z,50.70
2023-06-19T01:55:17.231Z,50.40
2023-06-19T01:57:46.962Z,51.10
2023-06-19T02:00:15.356Z,50.30
2023-06-19T02:02:43.564Z,50.30
2023-06-19T02:05:11.783Z,51.40
2023-06-19T02:07:39.917Z,52.00
2023-06-19T02:10:09.367Z,52.20
2023-06-19T02:12:38.934Z,52.50
2023-06-19T02:15:08.338Z,51.90
2023-06-19T02:17:36.531Z,52.10
2023-06-19T02:20:08.960Z,51.10
2023-06-19T02:22:37.123Z,54.20
2023-06-19T02:25:05.965Z,53.00
2023-06-19T02:27:34.094Z,54.40
2023-06-19T02:30:04.425Z,55.60
2023-06-19T02:32:32.521Z,56.10
2023-06-19T02:35:00.662Z,56.60
2023-06-19T02:37:30.527Z,57.10
2023-06-19T02:39:59.187Z,58.40
2023-06-19T02:42:27.299Z,58.30
2023-06-19T02:44:55.433Z,59.00
2023-06-19T02:47:25.208Z,60.60
2023-06-19T02:49:53.387Z,61.00
2023-06-19T02:52:22.540Z,61.70
2023-06-19T02:54:50.643Z,60.60
2023-06-19T02:57:18.774Z,59.30
2023-06-19T02:59:47.241Z,58.40
2023-06-19T03:02:15.608Z,59.90
2023-06-19T03:04:45.447Z,60.30
2023-06-19T03:07:15.040Z,60.20
2023-06-19T03:09:43.295Z,60.10
2023-06-19T03:12:12.069Z,59.70
2023-06-19T03:14:41.109Z,61.00
2023-06-19T03:17:09.487Z,61.20
2023-06-19T03:19:37.770Z,60.50
2023-06-19T03:22:07.619Z,59.70
2023-06-19T03:24:35.823Z,60.10
2023-06-19T03:27:04.017Z,59.80
2023-06-19T03:29:32.151Z,59.70
2023-06-19T03:32:00.290Z,59.40
2023-06-19T03:34:28.410Z,59.30
2023-06-19T03:36:56.770Z,60.10
2023-06-19T03:39:26.309Z,59.30
2023-06-19T03:41:54.395Z,58.30
2023-06-19T03:44:22.581Z,57.90
2023-06-19T03:46:51.815Z,58.60
2023-06-19T03:49:20.076Z,59.30
2023-06-19T03:51:48.235Z,60.00
2023-06-19T03:54:16.366Z,60.30
2023-06-19T03:56:45.810Z,59.20
2023-06-19T03:59:13.947Z,59.10
2023-06-19T04:01:42.827Z,59.60
2023-06-19T04:04:11.209Z,59.00
2023-06-19T04:06:39.415Z,58.40
2023-06-19T04:09:07.548Z,58.40
2023-06-19T04:11:35.685Z,58.30
2023-06-19T04:14:05.177Z,57.80
2023-06-19T04:16:33.443Z,58.80
2023-06-19T04:19:01.741Z,59.20
2023-06-19T04:21:30.792Z,57.90
2023-06-19T04:23:59.344Z,57.60
2023-06-19T04:26:28.795Z,58.00
2023-06-19T04:28:57.461Z,58.10
2023-06-19T04:31:27.757Z,57.60
2023-06-19T04:33:57.966Z,58.80
2023-06-19T04:36:26.163Z,58.00
2023-06-19T04:38:54.303Z,57.50
2023-06-19T04:41:22.987Z,58.20
2023-06-19T04:43:51.125Z,57.80
2023-06-19T04:46:21.501Z,57.50
2023-06-19T04:48:51.907Z,57.20
2023-06-19T04:51:22.375Z,56.80
2023-06-19T04:53:50.516Z,56.80
2023-06-19T04:56:18.775Z,59.40
2023-06-19T04:58:48.401Z,58.00
2023-06-19T05:01:16.581Z,57.80
2023-06-19T05:03:47.154Z,60.30
2023-06-19T05:06:16.654Z,58.40
2023-06-19T05:08:44.832Z,58.00
2023-06-19T05:11:12.978Z,57.80
2023-06-19T05:13:41.140Z,59.00
2023-06-19T05:16:09.246Z,58.50
2023-06-19T05:18:37.377Z,57.30
2023-06-19T05:21:05.533Z,57.40
2023-06-19T05:23:35.094Z,57.00
2023-06-19T05:26:03.404Z,57.10
2023-06-19T05:28:31.515Z,56.90
2023-06-19T05:30:59.741Z,57.40
2023-06-19T05:33:28.160Z,58.30
2023-06-19T05:35:57.114Z,57.30
2023-06-19T05:38:27.239Z,56.60
2023-06-19T05:40:56.751Z,57.20
2023-06-19T05:43:25.906Z,55.50
2023-06-19T05:45:55.011Z,55.60
2023-06-19T05:48:23.214Z,55.80
2023-06-19T05:50:51.376Z,55.70
2023-06-19T05:53:19.473Z,56.30
2023-06-19T05:55:48.053Z,55.30
2023-06-19T05:58:21.084Z,56.30
2023-06-19T06:00:49.538Z,55.00
2023-06-19T06:03:17.770Z,55.90
2023-06-19T06:05:50.016Z,55.80
2023-06-19T06:08:18.231Z,54.60
2023-06-19T06:10:46.510Z,55.20
2023-06-19T06:13:14.925Z,55.10
2023-06-19T06:15:44.421Z,54.20
2023-06-19T06:18:12.630Z,54.00
2023-06-19T06:20:40.775Z,53.90
2023-06-19T06:23:08.971Z,53.80
2023-06-19T06:25:37.067Z,53.40
2023-06-19T06:28:06.346Z,53.40
2023-06-19T06:30:34.524Z,53.00
2023-06-19T06:33:04.720Z,52.20
2023-06-19T06:35:33.046Z,52.60
2023-06-19T06:38:03.215Z,52.50
2023-06-19T06:40:31.358Z,53.10
2023-06-19T06:42:59.869Z,52.80
2023-06-19T06:45:28.500Z,52.30
2023-06-19T06:47:58.141Z,52.20
2023-06-19T06:50:28.142Z,52.00
2023-06-19T06:52:56.521Z,53.00
2023-06-19T06:55:24.684Z,52.30
2023-06-19T06:57:52.791Z,51.10
2023-06-19T07:00:21.584Z,51.10
2023-06-19T07:02:51.599Z,50.50
2023-06-19T07:05:20.468Z,49.20
2023-06-19T07:07:49.948Z,49.80
2023-06-19T07:10:18.263Z,49.20
2023-06-19T07:12:49.941Z,49.90
2023-06-19T07:15:18.223Z,50.00
2023-06-19T07:17:46.889Z,50.40
2023-06-19T07:20:15.135Z,49.80
2023-06-19T07:22:43.339Z,49.60
2023-06-19T07:25:13.989Z,49.00
2023-06-19T07:27:42.822Z,49.10
2023-06-19T07:30:14.052Z,48.80
2023-06-19T07:32:43.942Z,49.00
2023-06-19T07:35:12.431Z,48.30
2023-06-19T07:37:40.604Z,48.20
2023-06-19T07:40:19.632Z,48.00
2023-06-19T07:42:50.566Z,48.50
2023-06-19T07:45:47.599Z,49.40
2023-06-19T07:54:59.794Z,50.90
2023-06-19T08:01:11.110Z,51.80
2023-06-19T08:03:54.426Z,52.30
2023-06-19T08:06:56.168Z,52.40
2023-06-19T08:10:14.064Z,52.30
2023-06-19T08:13:06.280Z,51.90
2023-06-19T08:15:58.862Z,51.40
2023-06-19T08:18:53.672Z,49.70
2023-06-19T08:25:29.233Z,49.50
2023-06-19T08:35:32.563Z,49.40
2023-06-19T08:47:56.392Z,49.10
2023-06-19T08:50:48.440Z,48.90
2023-06-19T09:07:33.889Z,50.00
2023-06-19T09:10:49.786Z,47.90
2023-06-19T09:14:06.422Z,46.10
2023-06-19T09:23:18.128Z,43.40
2023-06-19T09:26:23.864Z,45.20
2023-06-19T09:36:19.091Z,45.90
2023-06-19T09:39:44.447Z,44.10
2023-06-19T09:43:00.703Z,44.40
2023-06-19T09:49:09.138Z,42.00
2023-06-19T09:51:18.643Z,42.70
2023-06-19T09:54:19.028Z,42.10
2023-06-19T10:00:48.409Z,44.30
2023-06-19T10:07:28.980Z,43.40
2023-06-19T10:10:34.407Z,43.90
2023-06-19T10:13:51.965Z,41.90
2023-06-19T10:17:27.409Z,45.90
2023-06-19T10:20:17.356Z,42.60
2023-06-19T10:23:18.282Z,42.60
2023-06-19T10:29:29.224Z,42.10
2023-06-19T10:32:37.739Z,42.00
2023-06-19T10:35:59.580Z,44.20
2023-06-19T10:39:37.105Z,46.60
2023-06-19T10:41:53.405Z,40.90
2023-06-19T10:44:34.713Z,41.50
2023-06-19T10:47:23.720Z,41.90
2023-06-19T10:50:26.205Z,43.50
2023-06-19T10:53:34.409Z,42.90
2023-06-19T10:59:56.453Z,41.00
2023-06-19T11:05:54.394Z,42.00
2023-06-19T11:08:42.619Z,42.50
2023-06-19T11:12:02.499Z,41.90
2023-06-19T11:14:56.197Z,41.10
2023-06-19T11:17:38.009Z,42.40
2023-06-19T11:20:31.273Z,42.50
2023-06-19T11:23:11.353Z,41.00
2023-06-19T11:26:07.213Z,40.70
2023-06-19T11:29:04.364Z,39.50
2023-06-19T11:32:31.549Z,40.70
2023-06-19T11:35:29.690Z,41.70
2023-06-19T11:38:55.306Z,42.90
2023-06-19T11:42:07.041Z,42.30
2023-06-19T11:45:03.298Z,41.90
2023-06-19T11:47:49.837Z,40.30
2023-06-19T11:51:15.394Z,40.30
2023-06-19T11:54:25.996Z,42.20
2023-06-19T11:57:06.778Z,40.50
2023-06-19T12:00:10.790Z,39.20
2023-06-19T12:04:07.189Z,39.90
2023-06-19T12:06:18.540Z,38.10
2023-06-19T12:12:53.905Z,40.90
2023-06-19T12:18:56.130Z,41.90
2023-06-19T12:25:42.710Z,40.20
2023-06-19T12:28:39.340Z,40.40
2023-06-19T12:31:48.070Z,38.80
2023-06-19T12:41:05.813Z,37.40
2023-06-19T12:43:47.328Z,36.70
2023-06-19T12:46:28.886Z,35.90
2023-06-19T12:49:35.920Z,36.80
2023-06-19T12:55:45.805Z,37.00
2023-06-19T12:59:18.252Z,36.70
2023-06-19T13:02:44.800Z,36.90
2023-06-19T13:05:52.210Z,36.50
2023-06-19T13:11:12.465Z,36.50
2023-06-19T13:14:04.929Z,39.10
2023-06-19T13:17:06.655Z,37.40
2023-06-19T13:19:55.009Z,38.50
2023-06-19T13:23:04.172Z,38.90
2023-06-19T13:26:14.051Z,36.00
2023-06-19T13:29:13.750Z,38.10
2023-06-19T13:32:21.690Z,36.40
2023-06-19T13:35:27.560Z,36.20
2023-06-19T13:40:53.876Z,35.20
2023-06-19T13:43:35.587Z,36.80
2023-06-19T13:46:34.741Z,39.10
2023-06-19T13:49:44.075Z,35.60
2023-06-19T13:52:50.284Z,35.60
2023-06-19T13:55:57.315Z,36.20
2023-06-19T13:58:32.485Z,35.10
2023-06-19T14:01:22.731Z,35.70
2023-06-19T14:04:31.381Z,36.10
2023-06-19T14:07:32.754Z,36.00
2023-06-19T14:10:21.826Z,34.50
2023-06-19T14:13:18.053Z,36.80
2023-06-19T14:16:40.527Z,37.00
2023-06-19T14:19:56.915Z,38.60
2023-06-19T14:22:54.621Z,38.60
2023-06-19T14:25:51.760Z,39.10
2023-06-19T14:28:49.546Z,39.20
2023-06-19T14:31:35.558Z,38.90
2023-06-19T14:34:26.495Z,39.60
2023-06-19T14:37:45.377Z,38.30
2023-06-19T14:44:20.220Z,36.80
2023-06-19T14:46:53.755Z,36.50
2023-06-19T14:49:36.909Z,35.60
2023-06-19T14:52:41.392Z,37.40
2023-06-19T14:55:12.312Z,37.40
2023-06-19T14:57:41.943Z,36.80
2023-06-19T15:00:27.159Z,37.10
2023-06-19T15:03:15.814Z,35.20
2023-06-19T15:05:47.370Z,36.00
2023-06-19T15:08:30.542Z,38.80
2023-06-19T15:11:13.552Z,37.90
2023-06-19T15:16:46.985Z,37.10
2023-06-19T15:20:01.807Z,35.90
2023-06-19T15:22:40.453Z,36.30
2023-06-19T15:25:34.955Z,37.20
2023-06-19T15:28:44.810Z,37.50
2023-06-19T15:31:20.383Z,37.00
2023-06-19T15:34:15.874Z,36.00
2023-06-19T15:37:20.210Z,38.10
2023-06-19T15:40:14.477Z,38.60
2023-06-19T15:42:52.319Z,39.30
2023-06-19T15:46:13.855Z,40.30
2023-06-19T15:49:02.589Z,39.40
2023-06-19T15:51:30.846Z,39.60
2023-06-19T15:53:58.978Z,39.00
2023-06-19T15:56:28.719Z,39.70
2023-06-19T15:58:57.576Z,39.80
2023-06-19T16:01:25.805Z,38.60
2023-06-19T16:03:55.453Z,39.60
2023-06-19T16:06:23.668Z,40.10
2023-06-19T16:08:53.136Z,41.00
2023-06-19T16:11:21.336Z,40.20
2023-06-19T16:13:50.027Z,39.00
2023-06-19T16:16:18.928Z,39.00
2023-06-19T16:18:48.192Z,39.40
2023-06-19T16:21:18.992Z,40.20
2023-06-19T16:23:47.920Z,41.00
2023-06-19T16:26:19.810Z,40.60
2023-06-19T16:28:49.685Z,40.60
2023-06-19T16:31:18.273Z,40.80
2023-06-19T16:33:48.656Z,40.60
2023-06-19T16:36:18.546Z,40.10
2023-06-19T16:38:50.069Z,40.10
2023-06-19T16:41:20.782Z,39.30
2023-06-19T16:43:49.224Z,38.80
2023-06-19T16:46:17.782Z,39.70
2023-06-19T16:48:46.996Z,39.00
2023-06-19T16:51:15.458Z,40.10
2023-06-19T16:53:45.208Z,38.80
2023-06-19T16:56:13.529Z,38.90
2023-06-19T16:58:42.006Z,39.60
2023-06-19T17:01:12.906Z,38.40
2023-06-19T17:03:41.853Z,38.60
2023-06-19T17:06:10.322Z,38.00
2023-06-19T17:08:38.510Z,38.40
2023-06-19T17:11:08.213Z,39.20
2023-06-19T17:13:36.437Z,37.20
2023-06-19T17:16:04.746Z,36.80
2023-06-19T17:18:34.001Z,37.20
2023-06-19T17:21:02.611Z,38.20
2023-06-19T17:23:30.756Z,38.40
2023-06-19T17:25:59.034Z,37.40
2023-06-19T17:28:28.579Z,37.70
2023-06-19T17:30:56.887Z,38.60
2023-06-19T17:33:25.079Z,39.10
2023-06-19T17:35:53.291Z,37.10
2023-06-19T17:38:21.692Z,37.40
2023-06-19T17:40:49.989Z,37.80
2023-06-19T17:43:18.125Z,37.60
2023-06-19T17:45:47.846Z,37.80
2023-06-19T17:48:16.121Z,37.40
2023-06-19T17:50:44.261Z,38.10
2023-06-19T17:53:12.756Z,38.60
2023-06-19T17:55:41.956Z,39.00
2023-06-19T17:58:10.220Z,38.90
2023-06-19T18:00:38.384Z,38.90
2023-06-19T18:03:09.551Z,39.10
2023-06-19T18:05:37.828Z,38.30
2023-06-19T18:08:06.210Z,39.30
2023-06-19T18:10:34.576Z,37.80
2023-06-19T18:13:04.040Z,37.50
2023-06-19T18:15:32.680Z,37.50
2023-06-19T18:18:01.126Z,37.40
2023-06-19T18:20:31.139Z,37.70
2023-06-19T18:22:59.398Z,37.20
2023-06-19T18:25:27.725Z,37.30
2023-06-19T18:27:55.991Z,37.60
2023-06-19T18:30:24.442Z,36.70
2023-06-19T18:32:52.922Z,37.30
2023-06-19T18:35:21.176Z,36.80
2023-06-19T18:37:51.264Z,37.60
2023-06-19T18:40:19.436Z,38.00
2023-06-19T18:42:47.794Z,39.60
2023-06-19T18:45:19.066Z,39.00
2023-06-19T18:47:49.315Z,39.50
2023-06-19T18:50:19.825Z,40.30
2023-06-19T18:52:48.200Z,40.60
2023-06-19T18:55:18.037Z,40.60
2023-06-19T18:57:48.726Z,40.10
2023-06-19T19:00:21.055Z,40.50
2023-06-19T19:02:51.462Z,41.30
2023-06-19T19:05:19.768Z,42.10
2023-06-19T19:07:48.036Z,42.40
2023-06-19T19:10:17.621Z,43.10
2023-06-19T19:12:45.803Z,43.80
2023-06-19T19:15:14.015Z,43.70
2023-06-19T19:17:42.360Z,44.10
2023-06-19T19:20:13.467Z,45.10
2023-06-19T19:22:42.047Z,45.10
2023-06-19T19:25:10.506Z,45.20
2023-06-19T19:27:40.267Z,44.80
2023-06-19T19:30:09.989Z,44.90
2023-06-19T19:32:38.159Z,45.80
2023-06-19T19:35:06.978Z,47.20
2023-06-19T19:37:35.297Z,48.90
2023-06-19T19:40:04.861Z,49.40
2023-06-19T19:42:33.217Z,49.80
2023-06-19T19:45:06.105Z,50.00
2023-06-19T19:47:34.776Z,50.30
2023-06-19T19:50:03.052Z,50.10
2023-06-19T19:52:31.639Z,49.80
2023-06-19T19:54:59.838Z,51.40
2023-06-19T19:57:28.048Z,52.50
2023-06-19T19:59:56.198Z,52.00
2023-06-19T20:02:25.773Z,51.80
2023-06-19T20:04:53.984Z,52.40
2023-06-19T20:07:22.121Z,52.30
2023-06-19T20:09:50.969Z,53.20
2023-06-19T20:12:21.838Z,54.40
2023-06-19T20:14:50.296Z,54.60
2023-06-19T20:17:18.423Z,52.90
2023-06-19T20:19:48.179Z,53.30
2023-06-19T20:22:18.667Z,53.80
2023-06-19T20:24:50.346Z,53.70
2023-06-19T20:27:19.138Z,54.40
2023-06-19T20:29:47.309Z,54.30
2023-06-19T20:32:15.465Z,54.90
2023-06-19T20:34:43.637Z,56.10
2023-06-19T20:37:13.164Z,55.50
2023-06-19T20:39:42.497Z,53.80
2023-06-19T20:42:10.787Z,52.00
2023-06-19T20:44:38.994Z,53.30
2023-06-19T20:47:08.024Z,53.50
2023-06-19T20:49:36.163Z,52.80
2023-06-19T20:52:04.458Z,54.80
2023-06-19T20:54:36.836Z,54.50
2023-06-19T20:57:05.310Z,53.60
2023-06-19T20:59:34.385Z,53.50
2023-06-19T21:02:02.730Z,54.00
2023-06-19T21:04:31.128Z,55.20
2023-06-19T21:06:59.429Z,56.40
2023-06-19T21:09:28.109Z,57.20
2023-06-19T21:11:57.613Z,57.10
2023-06-19T21:14:25.853Z,56.80
2023-06-19T21:16:54.005Z,56.20
2023-06-19T21:19:22.193Z,57.10
2023-06-19T21:21:50.340Z,56.40
2023-06-19T21:24:18.580Z,55.30
2023-06-19T21:26:46.712Z,55.30
2023-06-19T21:29:16.257Z,55.60
2023-06-19T21:31:44.509Z,55.80
2023-06-19T21:34:12.789Z,57.00
2023-06-19T21:36:41.105Z,56.20
2023-06-19T21:39:09.297Z,57.10
2023-06-19T21:41:38.499Z,57.20
2023-06-19T21:44:06.878Z,56.10
2023-06-19T21:46:36.821Z,56.90
2023-06-19T21:49:05.857Z,56.90
2023-06-19T21:51:35.027Z,59.00
2023-06-19T21:54:03.181Z,58.90
2023-06-19T21:56:31.335Z,59.10
2023-06-19T21:58:59.508Z,59.50
2023-06-19T22:01:27.680Z,59.70
2023-06-19T22:03:57.351Z,57.20
2023-06-19T22:06:25.519Z,56.00
2023-06-19T22:08:53.670Z,56.70
2023-06-19T22:11:21.970Z,56.60
2023-06-19T22:13:50.088Z,55.50
2023-06-19T22:16:18.214Z,56.60
2023-06-19T22:18:46.419Z,57.10
2023-06-19T22:21:16.033Z,57.40
2023-06-19T22:23:45.470Z,57.10
2023-06-19T22:26:13.602Z,56.70
2023-06-19T22:28:41.718Z,56.40
2023-06-19T22:31:09.882Z,56.10
2023-06-19T22:33:38.051Z,56.00
2023-06-19T22:36:09.708Z,55.90
2023-06-19T22:38:43.462Z,55.70
2023-06-19T22:41:11.610Z,55.20
2023-06-19T22:43:39.773Z,55.40
2023-06-19T22:46:07.991Z,55.40
2023-06-19T22:48:37.421Z,55.40
2023-06-19T22:51:05.669Z,53.90
2023-06-19T22:53:33.768Z,54.20
2023-06-19T22:56:03.874Z,54.10
2023-06-19T22:58:32.033Z,53.50
2023-06-19T23:01:00.240Z,53.70
2023-06-19T23:03:30.413Z,53.40
2023-06-19T23:05:58.729Z,52.80
2023-06-19T23:08:26.832Z,52.40
2023-06-19T23:10:54.975Z,52.00
2023-06-19T23:13:24.687Z,51.50
2023-06-19T23:15:52.951Z,51.40
2023-06-19T23:18:23.037Z,52.50
2023-06-19T23:20:51.227Z,53.50
2023-06-19T23:23:21.508Z,54.60
2023-06-19T23:25:50.529Z,53.70
2023-06-19T23:28:19.667Z,52.70
2023-06-19T23:30:52.149Z,52.10
2023-06-19T23:33:21.206Z,52.30
2023-06-19T23:35:52.163Z,53.80
2023-06-19T23:38:20.605Z,54.00
2023-06-19T23:40:48.744Z,54.90
2023-06-19T23:43:17.118Z,55.10
2023-06-19T23:45:45.203Z,54.70
2023-06-19T23:48:17.930Z,54.20
2023-06-19T23:50:46.218Z,54.60
2023-06-19T23:53:14.379Z,57.00
2023-06-19T23:55:42.613Z,56.90
2023-06-19T23:58:10.752Z,57.10
